M/y Arion — 9HB2161 — position and weather

sailwx.info

Track history (hours):
 
Tides and Currents Weather Stations Pressure Air Temp Water Temp Dewpoint Dewpoint Depression Visibility Wind Speed Wind Dir Waves Ship Positions

M/y Arion

Last reported at 2014-Sep-17 18:33 UTC. Time now 2014-Sep-17 19:35 UTC.
Position N 44°03' E 009°50'.

Length 37 m; draft 2.2 m.

Type: Other ship. MMSI: 215479000.

Date/timePositionNaut miles runAvg speedWind from/ knotsBaromVisibWave heightAir tempDewpointWater temp
2014-Sep-17 18:33N 44°03' E 009°50'0 0.0
2014-Sep-17 17:33N 44°03' E 009°50'0 0.0
2014-Sep-17 16:33N 44°03' E 009°50'0 0.0
2014-Sep-17 15:33N 44°03' E 009°50'0 0.0
2014-Sep-17 14:33N 44°03' E 009°50'0 0.0
2014-Sep-17 13:33N 44°03' E 009°50'0 0.0
2014-Sep-17 12:33N 44°03' E 009°50'5 5.3
2014-Sep-17 11:33N 44°04' E 009°43'1313.1
2014-Sep-17 10:33N 44°11' E 009°27'13 0.6
2014-Sep-16 14:30N 44°19' E 009°13'2 2.3
2014-Sep-16 13:33N 44°18' E 009°10'88 4.4
2014-Sep-15 17:33N 43°40' E 007°20'15 4.9
2014-Sep-15 14:31N 43°31' E 007°03'0 0.0
2014-Sep-15 13:31N 43°31' E 007°03'0 0.4
2014-Sep-15 12:34N 43°32' E 007°04'1211.4
2014-Sep-15 11:33N 43°39' E 007°15'  
Track history (hours):
 
Tides and Currents Weather Stations Pressure Air Temp Water Temp Dewpoint Dewpoint Depression Visibility Wind Speed Wind Dir Waves Ship Positions

M/y Arion

Last reported at 2014-Sep-17 18:33 UTC. Time now 2014-Sep-17 19:35 UTC.
Position N 44°03' E 009°50'.

Length 37 m; draft 2.2 m.

Type: Other ship. MMSI: 215479000.

Date/timePositionNaut miles runAvg speedWind from/ knotsBaromVisibWave heightAir tempDewpointWater temp
2014-Sep-17 18:33N 44°03' E 009°50'0 0.0
2014-Sep-17 17:33N 44°03' E 009°50'0 0.0
2014-Sep-17 16:33N 44°03' E 009°50'0 0.0
2014-Sep-17 15:33N 44°03' E 009°50'0 0.0
2014-Sep-17 14:33N 44°03' E 009°50'0 0.0
2014-Sep-17 13:33N 44°03' E 009°50'0 0.0
2014-Sep-17 12:33N 44°03' E 009°50'5 5.3
2014-Sep-17 11:33N 44°04' E 009°43'1313.1
2014-Sep-17 10:33N 44°11' E 009°27'13 0.6
2014-Sep-16 14:30N 44°19' E 009°13'2 2.3
2014-Sep-16 13:33N 44°18' E 009°10'88 4.4
2014-Sep-15 17:33N 43°40' E 007°20'15 4.9
2014-Sep-15 14:31N 43°31' E 007°03'0 0.0
2014-Sep-15 13:31N 43°31' E 007°03'0 0.4
2014-Sep-15 12:34N 43°32' E 007°04'1211.4
2014-Sep-15 11:33N 43°39' E 007°15'  

Dump ship's entire track history